createdAt,value
2022-07-27T00:01:21.493Z,100272.13
2022-07-27T00:03:48.126Z,100266.00
2022-07-27T00:06:14.693Z,100273.94
2022-07-27T00:08:41.246Z,100281.59
2022-07-27T00:11:09.723Z,100273.84
2022-07-27T00:13:36.374Z,100281.41
2022-07-27T00:16:03.337Z,100277.75
2022-07-27T00:18:29.805Z,100273.63
2022-07-27T00:20:56.441Z,100272.28
2022-07-27T00:23:22.842Z,100274.25
2022-07-27T00:25:49.375Z,100274.94
2022-07-27T00:28:15.932Z,100268.56
2022-07-27T00:30:42.507Z,100271.53
2022-07-27T00:33:09.059Z,100272.13
2022-07-27T00:35:35.850Z,100273.78
2022-07-27T00:38:02.755Z,100273.09
2022-07-27T00:40:29.173Z,100270.53
2022-07-27T00:42:55.629Z,100270.41
2022-07-27T00:45:22.080Z,100266.22
2022-07-27T00:47:53.090Z,100266.16
2022-07-27T00:50:21.433Z,100266.63
2022-07-27T00:52:48.673Z,100266.97
2022-07-27T00:55:16.037Z,100260.03
2022-07-27T00:57:57.936Z,100272.59
2022-07-27T01:00:27.316Z,100267.75
2022-07-27T01:02:54.459Z,100264.41
2022-07-27T01:05:23.961Z,100270.91
2022-07-27T01:08:03.276Z,100269.66
2022-07-27T01:10:29.757Z,100268.28
2022-07-27T01:12:56.492Z,100267.19
2022-07-27T01:15:22.970Z,100280.25
2022-07-27T01:17:49.398Z,100272.72
2022-07-27T01:20:15.844Z,100271.06
2022-07-27T01:22:42.347Z,100274.22
2022-07-27T01:25:10.168Z,100282.28
2022-07-27T01:27:36.930Z,100276.63
2022-07-27T01:30:24.394Z,100283.06
2022-07-27T01:32:51.105Z,100283.53
2022-07-27T01:35:17.663Z,100285.38
2022-07-27T01:37:48.207Z,100277.78
2022-07-27T01:40:14.893Z,100276.75
2022-07-27T01:42:41.375Z,100280.09
2022-07-27T01:45:08.703Z,100275.41
2022-07-27T01:47:35.297Z,100271.66
2022-07-27T01:50:02.154Z,100277.59
2022-07-27T01:52:28.984Z,100274.47
2022-07-27T01:54:55.450Z,100270.13
2022-07-27T01:57:21.986Z,100270.25
2022-07-27T01:59:48.415Z,100271.09
2022-07-27T02:02:16.092Z,100265.94
2022-07-27T02:04:43.105Z,100263.16
2022-07-27T02:07:09.550Z,100268.19
2022-07-27T02:09:36.176Z,100262.56
2022-07-27T02:12:32.216Z,100259.00
2022-07-27T02:14:58.618Z,100261.16
2022-07-27T02:17:32.675Z,100258.56
2022-07-27T02:19:59.100Z,100260.38
2022-07-27T02:22:25.636Z,100263.63
2022-07-27T02:24:52.260Z,100262.25
2022-07-27T02:27:18.750Z,100262.63
2022-07-27T02:29:45.183Z,100260.91
2022-07-27T02:32:11.767Z,100261.41
2022-07-27T02:34:38.150Z,100261.66
2022-07-27T02:37:04.597Z,100267.78
2022-07-27T02:39:31.014Z,100262.03
2022-07-27T02:41:57.423Z,100258.25
2022-07-27T02:44:23.818Z,100257.00
2022-07-27T02:46:50.319Z,100260.63
2022-07-27T02:49:16.833Z,100258.84
2022-07-27T02:51:48.408Z,100266.38
2022-07-27T02:54:14.837Z,100269.81
2022-07-27T02:56:41.313Z,100275.09
2022-07-27T02:59:07.730Z,100265.19
2022-07-27T03:01:34.294Z,100263.69
2022-07-27T03:04:00.809Z,100263.69
2022-07-27T03:06:27.325Z,100257.13
2022-07-27T03:08:53.753Z,100255.16
2022-07-27T03:11:20.247Z,100260.13
2022-07-27T03:13:46.830Z,100261.41
2022-07-27T03:16:13.349Z,100255.25
2022-07-27T03:18:39.872Z,100260.56
2022-07-27T03:21:07.005Z,100262.59
2022-07-27T03:23:34.864Z,100257.00
2022-07-27T03:26:01.298Z,100253.94
2022-07-27T03:28:27.743Z,100257.75
2022-07-27T03:30:54.245Z,100266.81
2022-07-27T03:33:20.732Z,100270.06
2022-07-27T03:35:47.160Z,100264.75
2022-07-27T03:38:13.585Z,100260.44
2022-07-27T03:40:40.468Z,100265.31
2022-07-27T03:43:07.112Z,100267.75
2022-07-27T03:45:34.048Z,100266.44
2022-07-27T03:48:00.540Z,100267.41
2022-07-27T03:50:26.957Z,100268.94
2022-07-27T03:52:53.532Z,100266.50
2022-07-27T03:55:20.894Z,100267.56
2022-07-27T03:57:47.580Z,100262.03
2022-07-27T04:00:15.766Z,100264.84
2022-07-27T04:02:42.892Z,100283.41
2022-07-27T04:05:09.965Z,100288.31
2022-07-27T04:07:36.455Z,100281.72
2022-07-27T04:10:04.096Z,100271.91
2022-07-27T04:12:30.624Z,100280.22
2022-07-27T04:14:58.664Z,100286.25
2022-07-27T04:17:55.466Z,100285.44
2022-07-27T04:20:11.666Z,100286.63
2022-07-27T04:22:38.184Z,100290.91
2022-07-27T04:25:05.352Z,100281.69
2022-07-27T04:27:32.117Z,100291.06
2022-07-27T04:29:58.579Z,100293.94
2022-07-27T04:32:25.017Z,100282.09
2022-07-27T04:34:51.537Z,100288.03
2022-07-27T04:37:17.954Z,100274.78
2022-07-27T04:39:44.390Z,100283.34
2022-07-27T04:42:10.837Z,100280.31
2022-07-27T04:44:37.302Z,100277.25
2022-07-27T04:47:03.807Z,100275.28
2022-07-27T04:49:30.305Z,100274.69
2022-07-27T04:51:56.810Z,100282.66
2022-07-27T04:54:23.234Z,100281.88
2022-07-27T04:56:49.670Z,100278.56
2022-07-27T04:59:16.045Z,100294.59
2022-07-27T05:01:42.555Z,100288.44
2022-07-27T05:04:09.221Z,100305.59
2022-07-27T05:06:35.732Z,100306.28
2022-07-27T05:09:02.311Z,100305.97
2022-07-27T05:11:28.761Z,100307.47
2022-07-27T05:13:55.175Z,100310.47
2022-07-27T05:16:26.487Z,100315.16
2022-07-27T05:18:54.832Z,100325.41
2022-07-27T05:21:21.252Z,100314.72
2022-07-27T05:23:47.798Z,100316.41
2022-07-27T05:26:14.453Z,100309.97
2022-07-27T05:28:40.847Z,100326.13
2022-07-27T05:31:07.255Z,100336.53
2022-07-27T05:33:34.263Z,100335.00
2022-07-27T05:36:00.665Z,100339.63
2022-07-27T05:38:27.350Z,100333.75
2022-07-27T05:40:53.746Z,100337.72
2022-07-27T05:43:20.167Z,100346.91
2022-07-27T05:45:46.981Z,100347.16
2022-07-27T05:48:13.553Z,100343.75
2022-07-27T05:50:40.011Z,100342.75
2022-07-27T05:53:06.405Z,100335.66
2022-07-27T05:55:33.472Z,100347.44
2022-07-27T05:57:59.933Z,100347.44
2022-07-27T06:00:26.379Z,100343.22
2022-07-27T06:02:52.850Z,100349.06
2022-07-27T06:05:19.260Z,100347.78
2022-07-27T06:08:02.990Z,100351.41
2022-07-27T06:10:31.074Z,100347.84
2022-07-27T06:12:58.993Z,100353.19
2022-07-27T06:15:25.955Z,100357.09
2022-07-27T06:17:53.912Z,100352.09
2022-07-27T06:20:22.217Z,100358.50
2022-07-27T06:22:53.960Z,100359.53
2022-07-27T06:25:21.847Z,100352.31
2022-07-27T06:27:48.774Z,100367.13
2022-07-27T06:30:17.233Z,100359.50
2022-07-27T06:32:44.075Z,100365.66
2022-07-27T06:35:11.512Z,100370.72
2022-07-27T06:37:43.905Z,100361.03
2022-07-27T06:40:12.356Z,100367.13
2022-07-27T06:42:39.338Z,100368.75
2022-07-27T06:45:06.939Z,100368.41
2022-07-27T06:47:33.502Z,100366.53
2022-07-27T06:49:59.946Z,100364.84
2022-07-27T06:52:26.416Z,100371.47
2022-07-27T06:54:52.828Z,100359.38
2022-07-27T06:57:19.275Z,100371.84
2022-07-27T06:59:45.688Z,100368.53
2022-07-27T07:02:12.280Z,100369.84
2022-07-27T07:04:38.807Z,100371.47
2022-07-27T07:07:07.249Z,100370.00
2022-07-27T07:09:34.170Z,100368.75
2022-07-27T07:12:00.966Z,100373.94
2022-07-27T07:14:27.389Z,100384.22
2022-07-27T07:16:53.838Z,100377.28
2022-07-27T07:19:20.584Z,100371.06
2022-07-27T07:21:47.386Z,100382.06
2022-07-27T07:24:14.152Z,100380.59
2022-07-27T07:26:41.038Z,100374.94
2022-07-27T07:29:07.659Z,100377.50
2022-07-27T07:31:34.246Z,100383.50
2022-07-27T07:34:00.785Z,100387.63
2022-07-27T07:36:27.344Z,100376.22
2022-07-27T07:38:55.719Z,100385.34
2022-07-27T07:41:25.275Z,100388.84
2022-07-27T07:43:51.755Z,100381.47
2022-07-27T07:46:18.584Z,100377.59
2022-07-27T07:48:45.067Z,100379.63
2022-07-27T07:51:11.683Z,100370.00
2022-07-27T07:53:41.780Z,100374.53
2022-07-27T07:56:09.248Z,100368.91
2022-07-27T07:58:35.643Z,100366.06
2022-07-27T08:01:02.253Z,100358.78
2022-07-27T08:03:28.758Z,100358.41
2022-07-27T08:05:55.250Z,100368.97
2022-07-27T08:08:24.737Z,100371.53
2022-07-27T08:10:51.593Z,100370.88
2022-07-27T08:13:21.952Z,100371.84
2022-07-27T08:15:48.777Z,100368.41
2022-07-27T08:18:15.259Z,100374.84
2022-07-27T08:20:41.665Z,100374.84
2022-07-27T08:23:08.058Z,100370.47
2022-07-27T08:25:34.658Z,100369.75
2022-07-27T08:28:01.965Z,100366.88
2022-07-27T08:30:30.521Z,100363.69
2022-07-27T08:33:01.917Z,100364.59
2022-07-27T08:35:29.618Z,100367.38
2022-07-27T08:37:57.065Z,100365.94
2022-07-27T08:40:44.423Z,100354.81
2022-07-27T08:43:18.892Z,100367.75
2022-07-27T08:45:58.153Z,100365.66
2022-07-27T08:48:26.227Z,100357.19
2022-07-27T08:50:53.680Z,100368.03
2022-07-27T08:53:22.111Z,100370.75
2022-07-27T08:55:49.364Z,100372.69
2022-07-27T08:58:16.592Z,100366.19
2022-07-27T09:00:46.441Z,100360.75
2022-07-27T09:03:19.189Z,100369.84
2022-07-27T09:05:57.810Z,100373.16
2022-07-27T09:08:26.337Z,100364.28
2022-07-27T09:10:55.087Z,100359.63
2022-07-27T09:13:30.439Z,100369.41
2022-07-27T09:16:17.621Z,100372.34
2022-07-27T09:18:45.277Z,100367.56
2022-07-27T09:21:23.674Z,100373.69
2022-07-27T09:23:51.821Z,100378.00
2022-07-27T09:26:35.077Z,100372.59
2022-07-27T09:29:03.492Z,100371.34
2022-07-27T09:31:31.099Z,100370.84
2022-07-27T09:34:00.491Z,100368.78
2022-07-27T09:36:28.439Z,100371.63
2022-07-27T09:39:02.060Z,100372.38
2022-07-27T09:41:43.940Z,100373.31
2022-07-27T09:44:31.918Z,100365.88
2022-07-27T09:46:59.265Z,100372.41
2022-07-27T09:49:34.073Z,100369.50
2022-07-27T09:52:03.139Z,100366.28
2022-07-27T09:54:44.057Z,100371.00
2022-07-27T09:57:10.717Z,100366.69
2022-07-27T09:59:37.123Z,100364.19
2022-07-27T10:02:03.752Z,100365.13
2022-07-27T10:04:33.059Z,100367.19
2022-07-27T10:07:03.307Z,100359.31
2022-07-27T10:09:32.865Z,100362.13
2022-07-27T10:11:59.703Z,100361.81
2022-07-27T10:14:26.199Z,100359.91
2022-07-27T10:16:53.559Z,100365.34
2022-07-27T10:19:46.727Z,100367.47
2022-07-27T10:22:14.574Z,100365.34
2022-07-27T10:24:41.019Z,100369.72
2022-07-27T10:27:20.818Z,100372.75
2022-07-27T10:29:51.402Z,100372.09
2022-07-27T10:32:31.882Z,100370.72
2022-07-27T10:35:01.396Z,100374.16
2022-07-27T10:37:30.562Z,100371.03
2022-07-27T10:40:18.065Z,100364.00
2022-07-27T10:42:51.909Z,100372.03
2022-07-27T10:45:20.529Z,100369.06
2022-07-27T10:47:50.365Z,100371.66
2022-07-27T10:50:20.025Z,100363.94
2022-07-27T10:52:54.653Z,100370.66
2022-07-27T10:55:35.115Z,100369.63
2022-07-27T10:58:04.130Z,100375.91
2022-07-27T11:00:56.700Z,100366.34
2022-07-27T11:03:33.348Z,100374.56
2022-07-27T11:06:30.775Z,100365.66
2022-07-27T11:09:27.272Z,100368.34
2022-07-27T11:11:39.414Z,100364.38
2022-07-27T11:14:05.887Z,100364.59
2022-07-27T11:16:37.008Z,100358.06
2022-07-27T11:19:14.448Z,100364.47
2022-07-27T11:21:41.410Z,100359.00
2022-07-27T11:24:13.524Z,100357.34
2022-07-27T11:26:45.329Z,100350.84
2022-07-27T11:29:14.548Z,100347.19
2022-07-27T11:31:58.996Z,100361.63
2022-07-27T11:34:29.086Z,100360.06
2022-07-27T11:36:56.812Z,100347.63
2022-07-27T11:39:59.366Z,100349.34
2022-07-27T11:42:21.338Z,100345.25
2022-07-27T11:44:51.095Z,100343.41
2022-07-27T11:47:19.283Z,100340.75
2022-07-27T11:49:46.489Z,100345.88
2022-07-27T11:52:17.203Z,100341.88
2022-07-27T11:54:43.708Z,100345.84
2022-07-27T11:57:13.066Z,100343.88
2022-07-27T11:59:41.511Z,100340.25
2022-07-27T12:02:17.722Z,100332.88
2022-07-27T12:04:46.537Z,100342.66
2022-07-27T12:07:19.829Z,100337.53
2022-07-27T12:09:55.863Z,100340.06
2022-07-27T12:12:25.741Z,100337.72
2022-07-27T12:14:57.232Z,100341.53
2022-07-27T12:17:34.364Z,100342.06
2022-07-27T12:20:03.524Z,100333.63
2022-07-27T12:22:31.544Z,100336.06
2022-07-27T12:24:59.461Z,100335.72
2022-07-27T12:27:28.962Z,100330.22
2022-07-27T12:30:04.161Z,100331.59
2022-07-27T12:32:32.767Z,100323.16
2022-07-27T12:35:00.162Z,100327.91
2022-07-27T12:37:31.755Z,100327.06
2022-07-27T12:39:58.679Z,100322.09
2022-07-27T12:42:36.495Z,100321.22
2022-07-27T12:45:14.971Z,100321.50
2022-07-27T12:47:41.528Z,100324.38
2022-07-27T12:50:17.397Z,100306.44
2022-07-27T12:52:51.127Z,100308.03
2022-07-27T12:55:19.677Z,100306.28
2022-07-27T12:57:56.778Z,100298.25
2022-07-27T13:00:32.690Z,100294.81
2022-07-27T13:03:01.214Z,100294.28
2022-07-27T13:05:27.761Z,100291.41
2022-07-27T13:07:54.209Z,100287.25
2022-07-27T13:10:20.911Z,100284.09
2022-07-27T13:12:48.227Z,100287.00
2022-07-27T13:15:16.106Z,100290.59
2022-07-27T13:17:43.879Z,100294.81
2022-07-27T13:20:12.411Z,100297.25
2022-07-27T13:22:40.423Z,100294.34
2022-07-27T13:25:15.661Z,100289.84
2022-07-27T13:27:44.226Z,100292.66
2022-07-27T13:30:11.773Z,100294.22
2022-07-27T13:32:38.651Z,100279.13
2022-07-27T13:35:07.429Z,100288.28
2022-07-27T13:37:33.871Z,100291.63
2022-07-27T13:40:00.340Z,100284.31
2022-07-27T13:42:26.768Z,100286.09
2022-07-27T13:45:08.176Z,100291.81
2022-07-27T13:47:36.284Z,100295.66
2022-07-27T13:50:03.490Z,100287.50
2022-07-27T13:52:30.052Z,100280.47
2022-07-27T13:54:56.486Z,100289.50
2022-07-27T13:57:23.475Z,100293.25
2022-07-27T13:59:49.876Z,100290.81
2022-07-27T14:02:16.418Z,100286.34
2022-07-27T14:04:49.268Z,100288.66
2022-07-27T14:07:15.751Z,100290.53
2022-07-27T14:10:01.015Z,100292.94
2022-07-27T14:12:27.453Z,100295.38
2022-07-27T14:14:54.005Z,100296.66
2022-07-27T14:17:20.430Z,100294.66
2022-07-27T14:19:46.855Z,100287.03
2022-07-27T14:22:13.294Z,100292.53
2022-07-27T14:24:39.935Z,100289.66
2022-07-27T14:27:06.862Z,100284.56
2022-07-27T14:29:33.971Z,100293.09
2022-07-27T14:32:01.216Z,100275.59
2022-07-27T14:34:27.721Z,100286.34
2022-07-27T14:36:54.453Z,100289.06
2022-07-27T14:39:20.827Z,100287.50
2022-07-27T14:41:47.530Z,100288.22
2022-07-27T14:44:14.216Z,100283.91
2022-07-27T14:46:45.090Z,100290.34
2022-07-27T14:49:11.676Z,100282.34
2022-07-27T14:51:38.195Z,100289.63
2022-07-27T14:54:05.250Z,100288.19
2022-07-27T14:56:31.731Z,100283.16
2022-07-27T14:58:58.216Z,100285.34
2022-07-27T15:01:24.947Z,100269.00
2022-07-27T15:03:51.526Z,100275.75
2022-07-27T15:06:18.003Z,100267.97
2022-07-27T15:08:44.410Z,100275.16
2022-07-27T15:11:11.037Z,100272.28
2022-07-27T15:13:37.486Z,100262.38
2022-07-27T15:16:04.349Z,100267.28
2022-07-27T15:18:36.405Z,100264.53
2022-07-27T15:21:06.753Z,100263.13
2022-07-27T15:23:39.742Z,100259.25
2022-07-27T15:26:06.240Z,100260.72
2022-07-27T15:28:32.868Z,100257.91
2022-07-27T15:30:59.409Z,100255.78
2022-07-27T15:33:26.725Z,100248.72
2022-07-27T15:35:54.593Z,100249.63
2022-07-27T15:38:21.068Z,100247.47
2022-07-27T15:40:47.570Z,100248.75
2022-07-27T15:43:16.864Z,100252.63
2022-07-27T15:45:47.619Z,100240.97
2022-07-27T15:48:15.641Z,100248.72
2022-07-27T15:50:45.176Z,100240.97
2022-07-27T15:53:11.926Z,100241.75
2022-07-27T15:55:38.439Z,100237.88
2022-07-27T15:58:06.164Z,100233.19
2022-07-27T16:00:38.620Z,100239.03
2022-07-27T16:03:06.424Z,100245.78
2022-07-27T16:05:33.064Z,100234.38
2022-07-27T16:07:59.458Z,100243.34
2022-07-27T16:10:27.316Z,100237.13
2022-07-27T16:12:53.714Z,100236.69
2022-07-27T16:15:20.170Z,100234.53
2022-07-27T16:17:46.576Z,100231.97
2022-07-27T16:20:13.349Z,100224.44
2022-07-27T16:22:39.821Z,100232.19
2022-07-27T16:25:06.743Z,100222.66
2022-07-27T16:27:33.301Z,100221.94
2022-07-27T16:29:59.727Z,100219.22
2022-07-27T16:32:30.381Z,100216.16
2022-07-27T16:34:56.783Z,100217.66
2022-07-27T16:37:24.684Z,100217.81
2022-07-27T16:39:51.140Z,100213.22
2022-07-27T16:42:17.638Z,100220.50
2022-07-27T16:44:44.043Z,100210.19
2022-07-27T16:47:10.533Z,100210.38
2022-07-27T16:49:37.259Z,100213.56
2022-07-27T16:52:05.383Z,100207.69
2022-07-27T16:54:35.579Z,100221.00
2022-07-27T16:57:06.104Z,100215.84
2022-07-27T16:59:32.535Z,100210.06
2022-07-27T17:01:59.035Z,100208.38
2022-07-27T17:04:25.675Z,100213.22
2022-07-27T17:06:52.161Z,100209.47
2022-07-27T17:09:18.637Z,100212.31
2022-07-27T17:11:45.081Z,100215.88
2022-07-27T17:14:16.413Z,100209.88
2022-07-27T17:16:51.748Z,100207.56
2022-07-27T17:19:18.898Z,100205.50
2022-07-27T17:21:45.767Z,100195.88
2022-07-27T17:24:12.386Z,100208.38
2022-07-27T17:26:38.900Z,100203.44
2022-07-27T17:29:05.622Z,100208.69
2022-07-27T17:31:32.291Z,100209.50
2022-07-27T17:33:59.010Z,100205.63
2022-07-27T17:36:26.330Z,100213.16
2022-07-27T17:38:52.803Z,100211.03
2022-07-27T17:41:24.487Z,100221.41
2022-07-27T17:43:52.632Z,100205.34
2022-07-27T17:46:19.285Z,100218.66
2022-07-27T17:48:49.686Z,100212.00
2022-07-27T17:51:16.245Z,100219.28
2022-07-27T17:53:43.562Z,100222.72
2022-07-27T17:56:11.017Z,100219.44
2022-07-27T17:58:37.858Z,100215.13
2022-07-27T18:01:06.354Z,100217.16
2022-07-27T18:03:33.087Z,100214.59
2022-07-27T18:06:01.388Z,100213.88
2022-07-27T18:08:28.100Z,100220.59
2022-07-27T18:10:54.537Z,100221.19
2022-07-27T18:13:21.025Z,100229.34
2022-07-27T18:15:47.632Z,100228.78
2022-07-27T18:18:19.484Z,100235.59
2022-07-27T18:20:48.148Z,100236.84
2022-07-27T18:23:15.364Z,100240.09
2022-07-27T18:25:43.978Z,100237.38
2022-07-27T18:28:10.731Z,100229.59
2022-07-27T18:30:37.540Z,100239.88
2022-07-27T18:33:04.056Z,100230.25
2022-07-27T18:35:30.549Z,100243.72
2022-07-27T18:37:57.138Z,100240.56
2022-07-27T18:40:23.584Z,100235.38
2022-07-27T18:42:50.196Z,100237.97
2022-07-27T18:45:16.648Z,100251.53
2022-07-27T18:47:49.542Z,100252.50
2022-07-27T18:50:16.278Z,100248.81
2022-07-27T18:52:42.779Z,100249.28
2022-07-27T18:55:09.645Z,100250.75
2022-07-27T18:57:36.111Z,100254.13
2022-07-27T19:00:02.860Z,100252.50
2022-07-27T19:02:31.165Z,100251.88
2022-07-27T19:04:59.891Z,100264.16
2022-07-27T19:07:26.328Z,100264.63
2022-07-27T19:09:54.804Z,100268.47
2022-07-27T19:12:21.228Z,100273.16
2022-07-27T19:14:50.012Z,100265.16
2022-07-27T19:17:20.650Z,100270.75
2022-07-27T19:19:47.375Z,100271.63
2022-07-27T19:22:13.831Z,100280.69
2022-07-27T19:24:40.385Z,100277.28
2022-07-27T19:27:06.861Z,100276.06
2022-07-27T19:29:33.280Z,100295.72
2022-07-27T19:31:59.686Z,100293.63
2022-07-27T19:34:26.099Z,100295.13
2022-07-27T19:36:52.565Z,100295.94
2022-07-27T19:39:18.970Z,100297.34
2022-07-27T19:41:45.362Z,100297.50
2022-07-27T19:44:11.745Z,100302.75
2022-07-27T19:46:38.262Z,100296.66
2022-07-27T19:49:04.921Z,100296.22
2022-07-27T19:51:31.662Z,100299.84
2022-07-27T19:53:58.426Z,100303.72
2022-07-27T19:56:24.869Z,100308.06
2022-07-27T19:58:51.356Z,100300.22
2022-07-27T20:01:17.901Z,100304.44
2022-07-27T20:03:53.318Z,100307.53
2022-07-27T20:06:23.060Z,100312.91
2022-07-27T20:08:49.692Z,100308.31
2022-07-27T20:11:16.169Z,100309.81
2022-07-27T20:13:42.643Z,100306.38
2022-07-27T20:16:09.038Z,100301.06
2022-07-27T20:18:36.854Z,100300.09
2022-07-27T20:21:03.559Z,100305.50
2022-07-27T20:23:30.057Z,100311.56
2022-07-27T20:25:56.554Z,100312.75
2022-07-27T20:28:23.022Z,100314.91
2022-07-27T20:30:49.541Z,100315.47
2022-07-27T20:33:19.496Z,100308.22
2022-07-27T20:35:45.907Z,100309.69
2022-07-27T20:38:12.747Z,100310.34
2022-07-27T20:40:39.247Z,100302.16
2022-07-27T20:43:05.707Z,100311.88
2022-07-27T20:45:32.197Z,100308.00
2022-07-27T20:47:58.700Z,100305.63
2022-07-27T20:50:25.184Z,100311.66
2022-07-27T20:52:51.842Z,100320.09
2022-07-27T20:55:18.371Z,100311.78
2022-07-27T20:57:44.881Z,100318.03
2022-07-27T21:00:12.012Z,100314.50
2022-07-27T21:02:39.200Z,100317.06
2022-07-27T21:05:07.453Z,100311.00
2022-07-27T21:07:33.846Z,100312.72
2022-07-27T21:10:00.402Z,100310.69
2022-07-27T21:12:26.946Z,100320.09
2022-07-27T21:14:53.452Z,100324.00
2022-07-27T21:17:20.390Z,100322.81
2022-07-27T21:19:46.910Z,100317.19
2022-07-27T21:22:13.305Z,100327.03
2022-07-27T21:24:39.731Z,100316.00
2022-07-27T21:27:06.189Z,100314.34
2022-07-27T21:29:33.133Z,100319.88
2022-07-27T21:31:59.593Z,100323.16
2022-07-27T21:34:26.133Z,100327.63
2022-07-27T21:36:52.527Z,100328.00
2022-07-27T21:39:19.883Z,100327.97
2022-07-27T21:41:46.384Z,100332.94
2022-07-27T21:44:13.216Z,100331.22
2022-07-27T21:46:39.830Z,100335.59
2022-07-27T21:49:06.456Z,100331.66
2022-07-27T21:51:32.897Z,100333.19
2022-07-27T21:53:59.693Z,100331.00
2022-07-27T21:56:26.646Z,100343.13
2022-07-27T21:58:53.074Z,100339.91
2022-07-27T22:01:19.626Z,100332.25
2022-07-27T22:03:46.549Z,100341.31
2022-07-27T22:06:13.591Z,100341.53
2022-07-27T22:08:39.988Z,100346.94
2022-07-27T22:11:06.589Z,100350.78
2022-07-27T22:13:33.101Z,100351.53
2022-07-27T22:15:59.802Z,100347.00
2022-07-27T22:18:26.297Z,100352.69
2022-07-27T22:20:52.737Z,100345.09
2022-07-27T22:23:19.208Z,100344.56
2022-07-27T22:25:45.704Z,100339.13
2022-07-27T22:28:12.146Z,100340.47
2022-07-27T22:30:40.101Z,100346.53
2022-07-27T22:33:07.221Z,100354.50
2022-07-27T22:35:33.925Z,100350.31
2022-07-27T22:38:00.441Z,100352.97
2022-07-27T22:40:26.895Z,100355.81
2022-07-27T22:42:53.297Z,100354.28
2022-07-27T22:45:19.839Z,100350.75
2022-07-27T22:47:46.506Z,100349.16
2022-07-27T22:50:17.942Z,100341.19
2022-07-27T22:52:44.672Z,100352.06
2022-07-27T22:55:11.186Z,100346.13
2022-07-27T22:57:37.684Z,100348.75
2022-07-27T23:00:08.923Z,100352.19
2022-07-27T23:02:35.437Z,100351.09
2022-07-27T23:05:02.019Z,100370.75
2022-07-27T23:07:28.637Z,100367.44
2022-07-27T23:09:56.983Z,100360.00
2022-07-27T23:12:24.090Z,100364.94
2022-07-27T23:14:50.627Z,100361.38
2022-07-27T23:17:17.095Z,100362.78
2022-07-27T23:19:43.522Z,100362.84
2022-07-27T23:22:11.486Z,100353.63
2022-07-27T23:24:38.249Z,100356.28
2022-07-27T23:27:07.644Z,100360.38
2022-07-27T23:29:34.083Z,100357.66
2022-07-27T23:32:02.399Z,100354.88
2022-07-27T23:34:29.193Z,100350.56
2022-07-27T23:36:55.928Z,100351.06
2022-07-27T23:39:22.324Z,100351.59
2022-07-27T23:41:50.148Z,100347.94
2022-07-27T23:44:17.434Z,100363.63
2022-07-27T23:46:44.042Z,100356.59
2022-07-27T23:49:10.808Z,100358.34
2022-07-27T23:51:37.316Z,100356.72
2022-07-27T23:54:03.882Z,100355.91
2022-07-27T23:56:30.319Z,100361.91
2022-07-27T23:58:56.771Z,100349.16
